Time;durP1;ratioP1;P1;durP2;ratioP2;P2;SDS_P1;SDS_P2;PMS_P1;PMS_P2;Temp;Humidity;BMP_temperature;BMP_pressure;BME280_temperature;BME280_humidity;BME280_pressure;Samples;Min_cycle;Max_cycle;Signal;HPM_P1;HPM_P2
2021/03/02 00:01:49;;;;;;;;;;;;;;;28.43;21.94;102428.06;5140104;27;743;-26
2021/03/02 00:04:14;;;;;;;;;;;;;;;28.42;22.23;102429.06;5138638;27;1061;-28
2021/03/02 00:06:40;;;;;;;;;;;;;;;28.81;21.66;102447.78;5138168;27;1898;-26
2021/03/02 00:09:05;;;;;;;;;;;;;;;29.03;21.65;102450.25;5138739;27;765;-27
2021/03/02 00:11:31;;;;;;;;;;;;;;;29.21;21.40;102455.66;5138824;27;806;-26
2021/03/02 00:13:57;;;;;;;;;;;;;;;28.72;21.98;102460.38;5138271;27;790;-37
2021/03/02 00:16:25;;;;;;;;;;;;;;;28.26;22.34;102448.66;5139333;27;1533;-26
2021/03/02 00:18:59;;;;;;;;;;;;;;;28.59;22.29;102459.91;5128224;27;942;-29
2021/03/02 00:21:25;;;;;;;;;;;;;;;28.93;21.78;102461.09;5137784;27;858;-33
2021/03/02 00:23:52;;;;;;;;;;;;;;;29.23;21.41;102469.03;5127421;27;806;-28
2021/03/02 00:26:18;;;;;;;;;;;;;;;28.79;21.86;102471.47;5119202;28;1964;-28
2021/03/02 00:28:44;;;;;;;;;;;;;;;28.14;22.64;102467.78;5118594;28;746;-28
2021/03/02 00:31:09;;;;;;;;;;;;;;;28.31;23.01;102468.00;5117503;28;877;-39
2021/03/02 00:33:35;;;;;;;;;;;;;;;28.85;22.14;102457.31;5124071;27;1021;-31
2021/03/02 00:36:00;;;;;;;;;;;;;;;29.04;21.68;102460.91;5138109;27;801;-37
2021/03/02 00:38:25;;;;;;;;;;;;;;;28.68;22.34;102455.41;5138766;27;858;-27
2021/03/02 00:40:51;;;;;;;;;;;;;;;28.15;22.97;102453.25;5139378;27;739;-27
2021/03/02 00:43:17;;;;;;;;;;;;;;;28.41;23.01;102462.56;5134944;27;1090;-27
2021/03/02 00:45:42;;;;;;;;;;;;;;;28.88;22.17;102452.59;5118545;28;1906;-27
2021/03/02 00:48:07;;;;;;;;;;;;;;;29.02;22.03;102448.50;5118061;28;950;-27
2021/03/02 00:50:33;;;;;;;;;;;;;;;29.06;22.14;102444.50;5118648;28;778;-29
2021/03/02 00:52:58;;;;;;;;;;;;;;;28.52;22.65;102448.81;5118381;28;758;-26
2021/03/02 00:55:23;;;;;;;;;;;;;;;28.05;23.32;102447.00;5117326;28;1599;-27
2021/03/02 00:57:49;;;;;;;;;;;;;;;28.80;22.43;102443.38;5118160;28;813;-26
2021/03/02 01:00:14;;;;;;;;;;;;;;;28.95;22.17;102445.53;5118103;28;797;-27
2021/03/02 01:02:39;;;;;;;;;;;;;;;29.08;22.20;102429.78;5118417;28;695;-27
2021/03/02 01:05:05;;;;;;;;;;;;;;;28.67;22.82;102421.22;5118194;28;981;-27
2021/03/02 01:07:31;;;;;;;;;;;;;;;28.10;22.93;102414.94;5117954;28;1905;-26
2021/03/02 01:09:56;;;;;;;;;;;;;;;28.64;22.87;102416.13;5118123;28;818;-27
2021/03/02 01:12:26;;;;;;;;;;;;;;;28.89;22.23;102417.22;5118277;28;746;-28
2021/03/02 01:14:51;;;;;;;;;;;;;;;29.14;22.02;102416.63;5117631;28;817;-26
2021/03/02 01:17:17;;;;;;;;;;;;;;;28.56;23.09;102416.88;5117772;28;1478;-26
2021/03/02 01:19:42;;;;;;;;;;;;;;;28.10;23.49;102426.63;5116342;28;1314;-27
2021/03/02 01:22:07;;;;;;;;;;;;;;;28.56;23.20;102438.56;5117553;28;810;-27
2021/03/02 01:24:33;;;;;;;;;;;;;;;28.84;22.75;102439.34;5118209;28;814;-27
2021/03/02 01:26:58;;;;;;;;;;;;;;;28.83;22.64;102428.66;5117725;28;1897;-27
2021/03/02 01:29:23;;;;;;;;;;;;;;;28.29;23.56;102434.81;5117781;28;770;-26
2021/03/02 01:31:48;;;;;;;;;;;;;;;28.24;23.86;102430.69;5117459;28;858;-25
2021/03/02 01:34:14;;;;;;;;;;;;;;;28.75;22.92;102431.28;5117439;28;946;-25
2021/03/02 01:36:39;;;;;;;;;;;;;;;28.95;22.83;102435.56;5117484;28;794;-27
2021/03/02 01:39:04;;;;;;;;;;;;;;;29.05;22.67;102442.78;5117677;28;846;-27
2021/03/02 01:41:30;;;;;;;;;;;;;;;28.61;22.83;102438.94;5117462;28;1033;-25
2021/03/02 01:43:55;;;;;;;;;;;;;;;27.99;23.61;102434.94;5116883;28;1134;-26
2021/03/02 01:46:20;;;;;;;;;;;;;;;28.51;23.25;102447.09;5117341;28;1988;-27
2021/03/02 01:48:45;;;;;;;;;;;;;;;28.92;22.50;102445.84;5125697;27;1016;-27
2021/03/02 01:51:11;;;;;;;;;;;;;;;28.94;22.74;102446.56;5137522;27;817;-29
2021/03/02 01:53:36;;;;;;;;;;;;;;;28.59;22.73;102436.38;5137936;27;806;-28
2021/03/02 01:56:02;;;;;;;;;;;;;;;28.29;23.48;102434.81;5137850;27;817;-27
2021/03/02 01:58:27;;;;;;;;;;;;;;;27.82;24.29;102442.81;5137332;27;830;-28
2021/03/02 02:01:05;;;;;;;;;;;;;;;28.57;23.13;102438.41;5137886;27;774;-28
2021/03/02 02:03:46;;;;;;;;;;;;;;;28.85;22.95;102440.19;5137366;27;1016;-32
2021/03/02 02:06:12;;;;;;;;;;;;;;;29.01;22.56;102436.81;5136044;27;1951;-35
2021/03/02 02:08:40;;;;;;;;;;;;;;;28.26;23.19;102437.81;5137036;27;838;-29
2021/03/02 02:11:13;;;;;;;;;;;;;;;28.31;23.72;102435.53;5136576;27;808;-28
2021/03/02 02:13:38;;;;;;;;;;;;;;;28.80;22.79;102442.50;5137416;27;826;-27
2021/03/02 02:16:06;;;;;;;;;;;;;;;29.01;22.69;102435.97;5137734;27;782;-28
2021/03/02 02:18:33;;;;;;;;;;;;;;;29.13;22.57;102450.16;5124606;27;1557;-28
2021/03/02 02:21:01;;;;;;;;;;;;;;;28.41;23.43;102451.75;5136194;27;839;-28
2021/03/02 02:23:42;;;;;;;;;;;;;;;28.09;23.71;102451.13;5137456;27;760;-27
2021/03/02 02:26:25;;;;;;;;;;;;;;;28.62;23.30;102446.06;5137100;27;1901;-29
2021/03/02 02:28:51;;;;;;;;;;;;;;;28.94;22.69;102450.13;5137148;27;862;-30
2021/03/02 02:31:17;;;;;;;;;;;;;;;29.19;22.59;102453.09;5136086;27;766;-30
2021/03/02 02:33:43;;;;;;;;;;;;;;;28.67;22.99;102462.69;5136621;27;953;-46
2021/03/02 02:36:09;;;;;;;;;;;;;;;27.14;21.14;102456.22;5135361;27;854;-35
2021/03/02 02:38:35;;;;;;;;;;;;;;;27.66;20.84;102465.00;5136053;27;787;-29
2021/03/02 02:41:00;;;;;;;;;;;;;;;27.87;20.51;102469.41;5137218;28;810;-30
2021/03/02 02:43:26;;;;;;;;;;;;;;;27.98;20.78;102471.09;5130203;28;1145;-29
2021/03/02 02:45:51;;;;;;;;;;;;;;;28.08;20.81;102462.94;5117188;28;1909;-30
2021/03/02 02:48:16;;;;;;;;;;;;;;;28.14;20.47;102465.06;5115084;28;994;-27
2021/03/02 02:50:43;;;;;;;;;;;;;;;28.07;20.40;102456.69;5115154;28;742;-27
2021/03/02 02:53:08;;;;;;;;;;;;;;;27.62;20.73;102469.88;5115438;28;779;-27
2021/03/02 02:55:44;;;;;;;;;;;;;;;26.19;22.22;102475.41;5115237;28;834;-26
2021/03/02 02:58:09;;;;;;;;;;;;;;;26.93;21.58;102472.53;5116204;28;807;-27
2021/03/02 03:00:34;;;;;;;;;;;;;;;27.55;20.80;102466.03;5114888;28;1516;-28
2021/03/02 03:03:00;;;;;;;;;;;;;;;27.79;20.66;102472.88;5115308;28;941;-29
2021/03/02 03:05:25;;;;;;;;;;;;;;;27.83;20.47;102468.84;5116367;28;770;-31
2021/03/02 03:07:55;;;;;;;;;;;;;;;27.50;20.84;102468.31;5114651;28;1968;-29
2021/03/02 03:10:24;;;;;;;;;;;;;;;27.60;20.37;102465.59;5116581;28;805;-28
2021/03/02 03:12:49;;;;;;;;;;;;;;;27.65;20.38;102460.63;5116208;28;882;-28
2021/03/02 03:15:15;;;;;;;;;;;;;;;27.69;20.42;102466.63;5115400;28;762;-30
2021/03/02 03:17:43;;;;;;;;;;;;;;;27.75;20.13;102466.03;5116462;28;1648;-29
2021/03/02 03:20:09;;;;;;;;;;;;;;;27.71;20.20;102472.75;5116901;28;983;-28
2021/03/02 03:22:34;;;;;;;;;;;;;;;27.66;20.49;102472.28;5119968;28;870;-30
2021/03/02 03:25:00;;;;;;;;;;;;;;;27.35;20.51;102471.47;5120287;28;755;-28
2021/03/02 03:27:26;;;;;;;;;;;;;;;25.80;22.12;102471.50;5118405;28;1905;-26
2021/03/02 03:29:51;;;;;;;;;;;;;;;26.29;21.93;102472.75;5120277;28;739;-43
2021/03/02 03:32:17;;;;;;;;;;;;;;;27.25;21.04;102474.16;5119261;28;791;-30
2021/03/02 03:34:42;;;;;;;;;;;;;;;27.43;20.60;102472.56;5117763;28;942;-27
2021/03/02 03:37:07;;;;;;;;;;;;;;;27.50;20.71;102477.28;5120179;28;755;-43
2021/03/02 03:39:33;;;;;;;;;;;;;;;27.48;20.65;102471.16;5118822;28;845;-30
2021/03/02 03:41:58;;;;;;;;;;;;;;;27.48;20.41;102468.47;5119047;28;1158;-37
2021/03/02 03:44:23;;;;;;;;;;;;;;;27.38;20.56;102470.31;5119814;28;1119;-44
2021/03/02 03:46:49;;;;;;;;;;;;;;;27.47;20.46;102474.88;5119990;28;1909;-28
2021/03/02 03:49:14;;;;;;;;;;;;;;;27.55;20.45;102473.28;5130146;27;989;-34
2021/03/02 03:51:39;;;;;;;;;;;;;;;27.41;20.45;102472.72;5137402;27;806;-40
2021/03/02 03:54:06;;;;;;;;;;;;;;;27.33;20.66;102467.19;5118081;28;817;-45
2021/03/02 03:56:31;;;;;;;;;;;;;;;27.51;20.42;102468.16;5118174;28;783;-29
2021/03/02 03:58:56;;;;;;;;;;;;;;;26.90;20.64;102468.28;5118713;28;777;-27
2021/03/02 04:01:21;;;;;;;;;;;;;;;25.56;22.22;102472.59;5119669;28;886;-38
2021/03/02 04:03:47;;;;;;;;;;;;;;;26.15;22.24;102465.88;5126338;27;930;-28
2021/03/02 04:06:13;;;;;;;;;;;;;;;26.76;21.50;102465.97;5139871;27;1966;-39
2021/03/02 04:08:38;;;;;;;;;;;;;;;27.08;21.02;102470.31;5139726;27;828;-26
2021/03/02 04:11:04;;;;;;;;;;;;;;;27.24;20.82;102472.44;5139804;27;770;-45
2021/03/02 04:13:29;;;;;;;;;;;;;;;27.03;20.89;102464.47;5139263;27;845;-28
2021/03/02 04:15:57;;;;;;;;;;;;;;;27.12;20.72;102460.94;5139754;27;767;-41
2021/03/02 04:18:22;;;;;;;;;;;;;;;27.05;20.53;102457.09;5126374;27;1637;-26
2021/03/02 04:20:48;;;;;;;;;;;;;;;27.02;20.79;102451.97;5138866;27;771;-27
2021/03/02 04:23:13;;;;;;;;;;;;;;;27.10;20.52;102462.06;5138476;27;739;-29
2021/03/02 04:25:38;;;;;;;;;;;;;;;26.65;21.21;102465.09;5140011;27;787;-29
2021/03/02 04:28:04;;;;;;;;;;;;;;;25.52;21.20;102454.13;5139826;27;1897;-28
2021/03/02 04:30:29;;;;;;;;;;;;;;;24.25;23.38;102450.00;5139810;27;716;-27
2021/03/02 04:32:54;;;;;;;;;;;;;;;23.95;23.29;102445.06;5139145;27;964;-28
2021/03/02 04:35:20;;;;;;;;;;;;;;;23.54;23.16;102449.13;5139800;27;733;-30
2021/03/02 04:37:45;;;;;;;;;;;;;;;23.85;22.66;102449.44;5127665;27;861;-30
2021/03/02 04:40:11;;;;;;;;;;;;;;;23.66;22.89;102452.66;5119435;28;868;-29
2021/03/02 04:42:37;;;;;;;;;;;;;;;23.67;22.51;102454.41;5118616;28;1071;-30
2021/03/02 04:45:03;;;;;;;;;;;;;;;23.99;23.74;102456.41;5118967;27;1205;-31
2021/03/02 04:47:28;;;;;;;;;;;;;;;25.45;19.70;102459.16;5118906;28;1905;-43
2021/03/02 04:49:54;;;;;;;;;;;;;;;25.47;18.84;102456.34;5118326;28;997;-31
2021/03/02 04:52:19;;;;;;;;;;;;;;;25.14;18.36;102457.19;5118937;28;798;-27
2021/03/02 04:54:45;;;;;;;;;;;;;;;24.67;18.98;102458.25;5121678;27;1493;-31
2021/03/02 04:57:10;;;;;;;;;;;;;;;24.62;19.22;102454.25;5117414;28;735;-37
2021/03/02 04:59:35;;;;;;;;;;;;;;;24.64;19.32;102455.00;5137124;27;798;-31
2021/03/02 05:02:03;;;;;;;;;;;;;;;20.88;23.39;102451.25;5139274;27;793;-28
2021/03/02 05:04:29;;;;;;;;;;;;;;;19.52;23.45;102454.13;5123514;27;948;-28
2021/03/02 05:06:54;;;;;;;;;;;;;;;18.59;24.92;102445.00;5118114;27;1901;-31
2021/03/02 05:09:19;;;;;;;;;;;;;;;18.92;25.08;102461.84;5118601;28;817;-41
2021/03/02 05:11:45;;;;;;;;;;;;;;;19.61;23.76;102453.56;5117826;28;815;-34
2021/03/02 05:14:10;;;;;;;;;;;;;;;20.64;22.29;102444.72;5118538;28;873;-33
2021/03/02 05:16:35;;;;;;;;;;;;;;;20.87;21.88;102447.72;5118202;27;1593;-32
2021/03/02 05:19:01;;;;;;;;;;;;;;;20.82;22.00;102455.19;5118157;27;993;-34
2021/03/02 05:21:26;;;;;;;;;;;;;;;20.69;21.69;102460.47;5118358;28;771;-33
2021/03/02 05:23:51;;;;;;;;;;;;;;;19.64;22.88;102460.50;5118275;28;771;-31
2021/03/02 05:26:16;;;;;;;;;;;;;;;19.24;23.51;102464.56;5117642;28;1959;-33
2021/03/02 05:28:42;;;;;;;;;;;;;;;19.47;23.35;102480.22;5118301;28;770;-35
2021/03/02 05:31:07;;;;;;;;;;;;;;;18.58;24.57;102478.75;5118018;28;819;-33
2021/03/02 05:33:32;;;;;;;;;;;;;;;20.36;23.00;102488.34;5117296;28;1044;-29
2021/03/02 05:35:57;;;;;;;;;;;;;;;22.01;21.11;102484.97;5118018;28;802;-35
2021/03/02 05:38:23;;;;;;;;;;;;;;;22.78;20.72;102487.72;5118028;28;893;-34
2021/03/02 05:40:48;;;;;;;;;;;;;;;23.26;20.31;102484.25;5117469;28;755;-35
2021/03/02 05:43:13;;;;;;;;;;;;;;;23.39;20.76;102481.47;5116903;28;1146;-33
2021/03/02 05:45:38;;;;;;;;;;;;;;;23.02;21.12;102490.47;5117598;28;937;-29
2021/03/02 05:48:08;;;;;;;;;;;;;;;22.51;21.95;102489.56;5120360;27;1918;-34
2021/03/02 05:50:33;;;;;;;;;;;;;;;23.17;21.07;102487.63;5138001;27;834;-32
2021/03/02 05:53:00;;;;;;;;;;;;;;;23.81;20.34;102490.94;5137842;27;812;-40
2021/03/02 05:55:25;;;;;;;;;;;;;;;24.27;19.74;102488.38;5137242;27;737;-35
2021/03/02 05:57:51;;;;;;;;;;;;;;;24.32;19.76;102487.03;5136211;27;868;-32
2021/03/02 06:00:16;;;;;;;;;;;;;;;24.43;19.78;102488.88;5137958;27;834;-30
2021/03/02 06:02:42;;;;;;;;;;;;;;;23.97;21.20;102486.09;5137890;27;755;-31
2021/03/02 06:05:07;;;;;;;;;;;;;;;23.18;22.74;102498.25;5137842;27;1008;-31
2021/03/02 06:07:33;;;;;;;;;;;;;;;23.60;21.99;102489.81;5137998;27;1968;-32
2021/03/02 06:09:58;;;;;;;;;;;;;;;23.97;21.65;102490.63;5137906;27;822;-35
2021/03/02 06:12:23;;;;;;;;;;;;;;;24.43;21.21;102496.94;5138055;27;840;-33
2021/03/02 06:14:59;;;;;;;;;;;;;;;24.44;21.19;102495.13;5133505;27;884;-31
2021/03/02 06:17:25;;;;;;;;;;;;;;;24.98;20.52;102503.41;5115605;28;1586;-32
2021/03/02 06:19:50;;;;;;;;;;;;;;;25.33;20.37;102500.59;5134315;27;957;-45
2021/03/02 06:22:34;;;;;;;;;;;;;;;24.09;21.74;102486.97;5137720;27;799;-42
2021/03/02 06:25:00;;;;;;;;;;;;;;;23.96;22.21;102494.28;5137837;27;790;-33
2021/03/02 06:27:25;;;;;;;;;;;;;;;24.65;21.46;102505.13;5137196;27;1968;-29
2021/03/02 06:30:08;;;;;;;;;;;;;;;24.57;21.45;102503.06;5137717;27;797;-31
2021/03/02 06:32:41;;;;;;;;;;;;;;;24.83;21.04;102495.56;5137299;27;866;-34
2021/03/02 06:35:07;;;;;;;;;;;;;;;25.47;20.39;102503.00;5137255;27;988;-32
2021/03/02 06:37:53;;;;;;;;;;;;;;;25.33;20.21;102505.97;5137597;27;767;-40
2021/03/02 06:40:18;;;;;;;;;;;;;;;23.84;22.05;102496.94;5136788;27;1091;-32
2021/03/02 06:42:45;;;;;;;;;;;;;;;24.03;22.13;102484.78;5136078;28;1229;-32
2021/03/02 06:45:13;;;;;;;;;;;;;;;24.93;21.03;102500.22;5117373;28;1141;-38
2021/03/02 06:47:42;;;;;;;;;;;;;;;25.34;20.44;102492.38;5116222;28;1913;-34
2021/03/02 06:50:10;;;;;;;;;;;;;;;25.34;20.41;102492.38;5116194;28;981;-41
2021/03/02 06:52:36;;;;;;;;;;;;;;;25.65;20.40;102497.94;5116920;28;837;-32
2021/03/02 06:55:01;;;;;;;;;;;;;;;25.22;20.75;102498.81;5118711;28;880;-31
2021/03/02 06:57:27;;;;;;;;;;;;;;;24.25;21.77;102493.88;5121058;28;767;-35
2021/03/02 06:59:53;;;;;;;;;;;;;;;24.41;21.90;102495.34;5121111;28;759;-33
2021/03/02 07:02:30;;;;;;;;;;;;;;;24.87;21.50;102490.78;5120338;28;863;-43
2021/03/02 07:05:04;;;;;;;;;;;;;;;25.27;21.02;102500.16;5120185;28;946;-44
2021/03/02 07:07:29;;;;;;;;;;;;;;;24.06;22.46;102500.66;5120843;28;1909;-36
2021/03/02 07:09:54;;;;;;;;;;;;;;;24.53;21.92;102496.19;5120673;28;779;-35
2021/03/02 07:12:20;;;;;;;;;;;;;;;25.28;20.99;102495.59;5120916;28;787;-38
2021/03/02 07:14:45;;;;;;;;;;;;;;;25.73;20.41;102494.56;5121171;28;736;-35
2021/03/02 07:17:12;;;;;;;;;;;;;;;25.74;20.37;102493.56;5120092;28;1652;-37
2021/03/02 07:19:37;;;;;;;;;;;;;;;24.48;21.47;102499.25;5120337;28;1016;-33
2021/03/02 07:22:03;;;;;;;;;;;;;;;24.02;21.88;102496.50;5119513;28;1479;-35
2021/03/02 07:24:28;;;;;;;;;;;;;;;25.15;21.23;102496.63;5119767;28;715;-33
2021/03/02 07:26:55;;;;;;;;;;;;;;;25.22;21.18;102496.13;5119349;28;1965;-32
2021/03/02 07:29:20;;;;;;;;;;;;;;;24.43;21.94;102486.19;5120908;28;749;-30
2021/03/02 07:31:46;;;;;;;;;;;;;;;24.89;21.77;102485.28;5119763;28;775;-31
2021/03/02 07:34:11;;;;;;;;;;;;;;;25.79;20.66;102487.81;5118779;28;939;-33
2021/03/02 07:36:36;;;;;;;;;;;;;;;26.15;20.20;102487.44;5118968;28;820;-33
2021/03/02 07:39:20;;;;;;;;;;;;;;;26.19;20.34;102471.84;5119949;28;755;-35
2021/03/02 07:41:46;;;;;;;;;;;;;;;25.37;21.29;102480.50;5120390;28;1078;-38
2021/03/02 07:44:11;;;;;;;;;;;;;;;24.99;21.89;102471.97;5120330;28;1204;-36
2021/03/02 07:46:36;;;;;;;;;;;;;;;25.13;22.40;102478.88;5120025;28;1992;-40
2021/03/02 07:49:20;;;;;;;;;;;;;;;25.31;21.44;102479.19;5130570;27;989;-37
2021/03/02 07:51:45;;;;;;;;;;;;;;;24.59;21.24;102468.78;5140770;27;771;-36
2021/03/02 07:54:14;;;;;;;;;;;;;;;25.05;21.32;102476.81;5140333;27;755;-36
2021/03/02 07:56:39;;;;;;;;;;;;;;;25.85;19.78;102476.50;5140248;27;858;-36
2021/03/02 07:59:05;;;;;;;;;;;;;;;25.99;20.08;102482.53;5139448;27;818;-36
2021/03/02 08:01:30;;;;;;;;;;;;;;;26.10;20.24;102476.19;5140258;27;747;-36
2021/03/02 08:04:14;;;;;;;;;;;;;;;26.37;19.76;102472.97;5139877;27;1148;-38
2021/03/02 08:06:39;;;;;;;;;;;;;;;25.07;21.58;102472.19;5139601;27;1979;-37
2021/03/02 08:09:23;;;;;;;;;;;;;;;24.48;22.13;102458.03;5140000;27;719;-34
2021/03/02 08:11:50;;;;;;;;;;;;;;;24.46;22.80;102464.41;5139934;27;779;-32
2021/03/02 08:14:18;;;;;;;;;;;;;;;24.79;22.21;102469.03;5139789;27;798;-33
2021/03/02 08:16:56;;;;;;;;;;;;;;;24.62;22.37;102471.25;5136276;27;1655;-32
2021/03/02 08:19:34;;;;;;;;;;;;;;;24.33;22.88;102469.06;5132504;27;945;-35
2021/03/02 08:21:59;;;;;;;;;;;;;;;25.62;21.25;102467.66;5140206;27;833;-40
2021/03/02 08:24:43;;;;;;;;;;;;;;;25.79;21.01;102468.94;5139751;27;775;-34
2021/03/02 08:27:09;;;;;;;;;;;;;;;25.23;21.78;102465.50;5140033;27;1913;-36
2021/03/02 08:29:34;;;;;;;;;;;;;;;24.63;22.63;102464.03;5139944;27;807;-40
2021/03/02 08:31:59;;;;;;;;;;;;;;;25.82;21.28;102467.81;5139641;27;783;-41
2021/03/02 08:34:24;;;;;;;;;;;;;;;26.11;20.85;102472.53;5138117;27;977;-39
2021/03/02 08:36:50;;;;;;;;;;;;;;;25.75;21.26;102464.78;5138589;27;826;-36
2021/03/02 08:39:16;;;;;;;;;;;;;;;25.76;21.26;102469.19;5139570;27;826;-36
2021/03/02 08:41:42;;;;;;;;;;;;;;;25.34;21.65;102462.75;5139577;27;1105;-33
2021/03/02 08:44:15;;;;;;;;;;;;;;;26.02;21.06;102463.41;5128408;27;1141;-43
2021/03/02 08:46:40;;;;;;;;;;;;;;;26.25;20.75;102465.91;5118528;28;1977;-35
2021/03/02 08:49:14;;;;;;;;;;;;;;;25.24;21.98;102462.66;5118415;28;941;-36
2021/03/02 08:51:40;;;;;;;;;;;;;;;25.22;21.87;102467.34;5119330;28;778;-35
2021/03/02 08:54:05;;;;;;;;;;;;;;;25.98;21.19;102459.25;5118552;28;846;-35
2021/03/02 08:56:33;;;;;;;;;;;;;;;26.35;20.67;102465.97;5118673;28;831;-34
2021/03/02 08:59:02;;;;;;;;;;;;;;;25.74;21.41;102468.50;5119025;28;1371;-35
2021/03/02 09:01:33;;;;;;;;;;;;;;;25.82;21.43;102466.00;5118921;28;843;-36
2021/03/02 09:04:25;;;;;;;;;;;;;;;25.55;21.67;102467.31;5108867;28;1084;-32
2021/03/02 09:06:51;;;;;;;;;;;;;;;26.19;21.00;102463.75;5095376;28;1905;-33
2021/03/02 09:09:16;;;;;;;;;;;;;;;25.87;21.36;102466.44;5097701;28;821;-36
2021/03/02 09:11:43;;;;;;;;;;;;;;;25.15;22.09;102461.63;5098132;28;774;-33
2021/03/02 09:14:14;;;;;;;;;;;;;;;25.17;22.17;102469.56;5098104;28;843;-37
2021/03/02 09:16:48;;;;;;;;;;;;;;;26.08;21.20;102459.28;5099714;28;1613;-36
2021/03/02 09:19:14;;;;;;;;;;;;;;;26.35;20.89;102466.84;5130358;27;941;-41
2021/03/02 09:21:41;;;;;;;;;;;;;;;25.30;21.90;102464.88;5138792;27;823;-38
2021/03/02 09:24:07;;;;;;;;;;;;;;;25.07;22.26;102464.09;5138534;27;937;-37
2021/03/02 09:26:32;;;;;;;;;;;;;;;26.01;21.47;102461.66;5138941;27;1909;-37
2021/03/02 09:28:58;;;;;;;;;;;;;;;26.30;20.90;102466.38;5138282;27;806;-39
2021/03/02 09:31:24;;;;;;;;;;;;;;;25.32;22.03;102459.34;5137579;27;747;-37
2021/03/02 09:33:49;;;;;;;;;;;;;;;25.16;22.29;102463.31;5138240;27;945;-38
2021/03/02 09:36:15;;;;;;;;;;;;;;;25.76;21.61;102461.09;5138167;27;778;-37
2021/03/02 09:38:40;;;;;;;;;;;;;;;26.24;21.04;102470.44;5137253;27;795;-36
2021/03/02 09:41:06;;;;;;;;;;;;;;;25.39;21.90;102463.22;5138133;27;1138;-37
2021/03/02 09:43:35;;;;;;;;;;;;;;;25.14;22.30;102465.28;5132401;27;1105;-38
2021/03/02 09:46:00;;;;;;;;;;;;;;;25.39;22.16;102457.00;5117202;28;1913;-36
2021/03/02 09:48:25;;;;;;;;;;;;;;;26.20;21.08;102457.38;5117426;28;938;-39
2021/03/02 09:50:50;;;;;;;;;;;;;;;26.25;20.77;102461.38;5117720;28;743;-39
2021/03/02 09:53:16;;;;;;;;;;;;;;;25.08;22.32;102460.41;5117449;28;799;-36
2021/03/02 09:55:48;;;;;;;;;;;;;;;25.02;22.46;102459.09;5117220;28;844;-35
2021/03/02 09:58:17;;;;;;;;;;;;;;;26.04;21.43;102458.72;5117588;28;783;-37
2021/03/02 10:00:42;;;;;;;;;;;;;;;25.71;21.46;102445.34;5117633;28;832;-37
2021/03/02 10:03:08;;;;;;;;;;;;;;;25.76;21.65;102445.78;5117032;28;942;-35
2021/03/02 10:05:37;;;;;;;;;;;;;;;25.62;21.75;102443.41;5117396;28;830;-38
2021/03/02 10:08:15;;;;;;;;;;;;;;;26.14;21.25;102445.28;5116794;28;1972;-39
2021/03/02 10:10:40;;;;;;;;;;;;;;;26.27;21.06;102448.63;5117616;28;854;-44
2021/03/02 10:13:06;;;;;;;;;;;;;;;25.55;21.64;102446.63;5117079;28;858;-41
2021/03/02 10:15:32;;;;;;;;;;;;;;;25.68;21.71;102430.28;5116805;28;886;-35
2021/03/02 10:17:58;;;;;;;;;;;;;;;25.62;21.86;102435.31;5116816;28;1589;-37
2021/03/02 10:20:24;;;;;;;;;;;;;;;26.27;21.14;102431.56;5117636;28;830;-39
2021/03/02 10:22:59;;;;;;;;;;;;;;;25.27;22.07;102423.88;5117009;28;787;-38
2021/03/02 10:25:25;;;;;;;;;;;;;;;24.78;22.71;102416.16;5117307;28;807;-35
2021/03/02 10:27:56;;;;;;;;;;;;;;;25.94;21.53;102420.94;5115638;28;1967;-37
2021/03/02 10:30:22;;;;;;;;;;;;;;;26.29;20.50;102419.63;5117280;28;814;-34
2021/03/02 10:32:47;;;;;;;;;;;;;;;25.85;21.22;102416.31;5116683;28;1038;-34
2021/03/02 10:35:12;;;;;;;;;;;;;;;25.55;21.70;102416.13;5116926;28;1004;-44
2021/03/02 10:37:38;;;;;;;;;;;;;;;25.59;21.73;102408.63;5116724;28;827;-34
2021/03/02 10:40:03;;;;;;;;;;;;;;;26.17;21.28;102418.88;5116907;28;762;-35
2021/03/02 10:42:28;;;;;;;;;;;;;;;26.37;21.09;102408.22;5117083;28;1062;-38
2021/03/02 10:44:54;;;;;;;;;;;;;;;25.43;21.91;102404.56;5116704;28;1165;-39
2021/03/02 10:47:19;;;;;;;;;;;;;;;25.06;22.51;102400.44;5116698;28;1979;-38
2021/03/02 10:49:44;;;;;;;;;;;;;;;25.95;21.63;102405.59;5133438;28;946;-39
2021/03/02 10:52:09;;;;;;;;;;;;;;;26.32;20.99;102394.25;5137218;28;842;-34
2021/03/02 10:54:36;;;;;;;;;;;;;;;26.29;20.96;102394.53;5137319;28;791;-35
2021/03/02 10:57:01;;;;;;;;;;;;;;;25.44;22.06;102393.66;5137035;28;826;-37
2021/03/02 10:59:26;;;;;;;;;;;;;;;25.12;22.57;102386.50;5137132;28;763;-35
2021/03/02 11:01:51;;;;;;;;;;;;;;;26.02;21.06;102391.44;5137405;28;823;-34
2021/03/02 11:04:17;;;;;;;;;;;;;;;26.13;19.72;102390.50;5137000;28;937;-36
2021/03/02 11:06:42;;;;;;;;;;;;;;;26.41;18.91;102379.09;5136865;28;1962;-36
2021/03/02 11:09:07;;;;;;;;;;;;;;;25.52;18.65;102374.16;5137234;28;818;-33
2021/03/02 11:11:33;;;;;;;;;;;;;;;25.29;18.58;102376.94;5137363;28;834;-41
2021/03/02 11:13:58;;;;;;;;;;;;;;;25.67;19.38;102374.66;5136686;28;800;-34
2021/03/02 11:16:23;;;;;;;;;;;;;;;26.07;18.65;102374.84;5136091;28;1624;-32
2021/03/02 11:18:49;;;;;;;;;;;;;;;25.54;18.05;102369.47;5125373;28;965;-36
2021/03/02 11:21:15;;;;;;;;;;;;;;;25.24;18.38;102364.88;5136751;28;849;-36
2021/03/02 11:23:40;;;;;;;;;;;;;;;25.41;18.92;102364.28;5136933;28;831;-34
2021/03/02 11:26:05;;;;;;;;;;;;;;;25.40;18.11;102359.03;5137101;28;1914;-43
2021/03/02 11:28:31;;;;;;;;;;;;;;;24.95;18.70;102352.91;5136397;28;839;-35
2021/03/02 11:30:56;;;;;;;;;;;;;;;24.87;19.10;102352.66;5137233;28;754;-31
2021/03/02 11:33:21;;;;;;;;;;;;;;;25.58;18.67;102353.03;5136727;28;957;-34
2021/03/02 11:35:46;;;;;;;;;;;;;;;25.80;18.20;102349.34;5136448;28;878;-32
2021/03/02 11:38:13;;;;;;;;;;;;;;;25.95;17.97;102352.53;5136852;28;920;-32
2021/03/02 11:40:38;;;;;;;;;;;;;;;25.30;17.58;102346.34;5138763;27;812;-36
2021/03/02 11:43:03;;;;;;;;;;;;;;;24.66;18.68;102337.31;5138023;27;1140;-35
2021/03/02 11:45:29;;;;;;;;;;;;;;;24.72;19.00;102338.63;5120512;28;819;-35
2021/03/02 11:47:55;;;;;;;;;;;;;;;25.27;18.50;102335.00;5119707;28;1969;-36
2021/03/02 11:50:20;;;;;;;;;;;;;;;24.64;18.53;102331.22;5120215;28;826;-36
2021/03/02 11:52:49;;;;;;;;;;;;;;;24.42;18.97;102330.31;5120161;28;747;-35
2021/03/02 11:55:14;;;;;;;;;;;;;;;25.14;18.76;102335.19;5119654;28;808;-44
2021/03/02 11:57:39;;;;;;;;;;;;;;;25.46;18.25;102333.41;5119387;28;811;-35
2021/03/02 12:00:08;;;;;;;;;;;;;;;25.67;17.96;102333.41;5120057;28;737;-33
2021/03/02 12:02:34;;;;;;;;;;;;;;;25.52;17.63;102324.78;5120546;28;1992;-34
2021/03/02 12:05:02;;;;;;;;;;;;;;;24.30;19.13;102322.25;5118930;28;938;-42
2021/03/02 12:07:27;;;;;;;;;;;;;;;24.37;19.48;102319.06;5119792;28;1972;-35
2021/03/02 12:09:52;;;;;;;;;;;;;;;26.99;17.43;102323.44;5119798;28;749;-35
2021/03/02 12:12:18;;;;;;;;;;;;;;;26.76;17.99;102318.34;5118982;28;823;-37
2021/03/02 12:14:43;;;;;;;;;;;;;;;26.92;18.15;102316.91;5119774;28;774;-35
2021/03/02 12:17:08;;;;;;;;;;;;;;;27.23;17.93;102305.09;5119506;28;1593;-34
2021/03/02 12:19:34;;;;;;;;;;;;;;;27.30;17.51;102306.22;5118727;27;942;-35
2021/03/02 12:21:59;;;;;;;;;;;;;;;27.43;17.94;102305.03;5119624;28;830;-43
2021/03/02 12:24:25;;;;;;;;;;;;;;;27.64;17.32;102304.81;5119068;28;823;-40
2021/03/02 12:26:50;;;;;;;;;;;;;;;27.74;17.58;102299.41;5126293;27;1905;-35
2021/03/02 12:29:16;;;;;;;;;;;;;;;27.81;17.26;102294.25;5139989;27;925;-34
2021/03/02 12:31:41;;;;;;;;;;;;;;;27.89;17.17;102298.91;5139901;27;782;-33
2021/03/02 12:34:06;;;;;;;;;;;;;;;27.95;17.44;102303.69;5138653;27;996;-33
2021/03/02 12:36:32;;;;;;;;;;;;;;;28.04;17.32;102297.41;5139652;27;746;-34
2021/03/02 12:38:57;;;;;;;;;;;;;;;28.08;17.14;102292.50;5139356;27;823;-32
2021/03/02 12:41:22;;;;;;;;;;;;;;;28.14;17.18;102296.47;5139334;27;1157;-33
2021/03/02 12:43:48;;;;;;;;;;;;;;;28.16;16.95;102295.31;5131113;27;1122;-31
2021/03/02 12:46:13;;;;;;;;;;;;;;;28.20;17.22;102294.00;5118699;28;1984;-35
2021/03/02 12:48:38;;;;;;;;;;;;;;;28.27;16.90;102298.81;5118218;28;942;-34
2021/03/02 12:51:04;;;;;;;;;;;;;;;28.23;16.94;102291.00;5116693;28;1074;-33